Time;durP1;ratioP1;P1;durP2;ratioP2;P2;SDS_P1;SDS_P2;PMS_P1;PMS_P2;Temp;Humidity;BMP_temperature;BMP_pressure;BME280_temperature;BME280_humidity;BME280_pressure;Samples;Min_cycle;Max_cycle;Signal;HPM_P1;HPM_P2
2022/04/05 00:01:27;;;;;;;6.43;5.80;;;4.30;96.30;;;;;;5101007;28;20231;-92
2022/04/05 00:03:54;;;;;;;6.25;5.65;;;4.30;96.40;;;;;;5101337;28;20669;-92
2022/04/05 00:06:23;;;;;;;7.60;6.80;;;4.30;96.40;;;;;;5103758;28;20207;-92
2022/04/05 00:08:49;;;;;;;7.55;6.10;;;4.30;96.40;;;;;;5109359;28;20194;-93
2022/04/05 00:11:17;;;;;;;7.80;6.68;;;4.30;96.40;;;;;;5115507;28;20360;-94
2022/04/05 00:13:43;;;;;;;9.45;5.90;;;4.30;96.50;;;;;;5105429;28;20233;-92
2022/04/05 00:16:10;;;;;;;7.88;6.90;;;4.30;96.80;;;;;;5107705;28;20267;-94
2022/04/05 00:18:38;;;;;;;7.28;6.57;;;4.30;96.50;;;;;;5112126;28;20226;-94
2022/04/05 00:21:05;;;;;;;8.63;6.50;;;4.30;96.60;;;;;;5118937;28;20203;-95
2022/04/05 00:23:34;;;;;;;6.03;5.40;;;4.30;96.60;;;;;;5118585;28;20652;-93
2022/04/05 00:26:22;;;;;;;11.60;6.13;;;4.40;96.70;;;;;;5106978;28;20210;-94
2022/04/05 00:28:58;;;;;;;5.43;4.93;;;4.30;96.70;;;;;;5097604;28;20207;-91
2022/04/05 00:31:25;;;;;;;7.53;6.03;;;4.30;96.70;;;;;;5097159;28;20554;-92
2022/04/05 00:33:52;;;;;;;7.65;6.05;;;4.30;96.80;;;;;;5097457;28;20208;-93
2022/04/05 00:36:19;;;;;;;6.78;6.07;;;4.30;96.80;;;;;;5100069;28;20214;-94
2022/04/05 00:38:59;;;;;;;8.55;6.85;;;4.30;96.80;;;;;;5105404;28;20210;-92
2022/04/05 00:41:26;;;;;;;6.97;6.28;;;4.30;96.80;;;;;;5099882;28;20245;-93
2022/04/05 00:43:53;;;;;;;8.05;5.63;;;4.40;96.70;;;;;;5100944;28;20219;-93
2022/04/05 00:46:20;;;;;;;6.47;5.70;;;4.40;96.80;;;;;;5099101;28;20214;-93
2022/04/05 00:48:51;;;;;;;7.85;7.05;;;4.40;96.80;;;;;;5100481;28;20206;-92
2022/04/05 00:51:20;;;;;;;9.70;6.25;;;4.40;96.80;;;;;;5102733;28;20213;-92
2022/04/05 00:53:52;;;;;;;7.32;5.75;;;4.40;96.70;;;;;;5104260;28;20302;-93
2022/04/05 00:56:20;;;;;;;7.50;6.35;;;4.50;96.90;;;;;;5105232;28;20202;-93
2022/04/05 00:58:49;;;;;;;7.72;5.72;;;4.40;96.80;;;;;;5103273;28;20194;-93
2022/04/05 01:01:18;;;;;;;7.72;5.90;;;4.50;96.80;;;;;;5100553;28;20560;-95
2022/04/05 01:03:48;;;;;;;9.82;6.35;;;4.50;96.70;;;;;;5100770;28;20228;-93
2022/04/05 01:06:18;;;;;;;6.97;6.00;;;4.50;96.70;;;;;;5101081;28;20210;-94
2022/04/05 01:09:36;;;;;;;6.35;5.28;;;4.50;96.60;;;;;;5099676;28;20203;-93
2022/04/05 01:12:06;;;;;;;7.28;5.80;;;4.50;96.60;;;;;;5057499;28;20214;-93
2022/04/05 01:14:33;;;;;;;7.05;6.35;;;4.50;96.80;;;;;;5100741;28;20474;-93
2022/04/05 01:17:00;;;;;;;6.32;5.70;;;4.50;96.70;;;;;;5102493;28;20213;-94
2022/04/05 01:19:27;;;;;;;8.23;6.82;;;4.50;96.70;;;;;;5103096;28;20204;-94
2022/04/05 01:21:54;;;;;;;7.75;6.70;;;4.50;96.60;;;;;;5117776;28;20207;-94
2022/04/05 01:24:23;;;;;;;6.60;5.90;;;4.50;96.80;;;;;;5112456;28;20224;-93
2022/04/05 01:26:52;;;;;;;8.00;6.32;;;4.50;96.80;;;;;;5103147;28;20209;-92
2022/04/05 01:29:21;;;;;;;6.90;5.78;;;4.50;96.80;;;;;;5100119;28;20286;-93
2022/04/05 01:31:52;;;;;;;6.50;5.78;;;4.40;97.10;;;;;;5101116;28;20687;-92
2022/04/05 01:34:22;;;;;;;8.63;7.18;;;4.40;97.30;;;;;;5100386;28;20222;-94
2022/04/05 01:36:51;;;;;;;7.13;6.20;;;4.40;98.00;;;;;;5117684;28;20194;-95
2022/04/05 01:39:20;;;;;;;7.60;5.60;;;4.40;98.00;;;;;;5117775;28;20259;-94
2022/04/05 01:41:52;;;;;;;7.63;6.07;;;4.40;97.90;;;;;;5117885;28;20180;-95
2022/04/05 01:44:19;;;;;;;6.00;5.45;;;4.40;98.10;;;;;;5117684;28;20207;-95
2022/04/05 01:46:46;;;;;;;6.18;5.57;;;4.40;97.80;;;;;;5117450;28;20195;-94
2022/04/05 01:49:14;;;;;;;7.03;6.32;;;4.40;97.70;;;;;;5117889;28;20183;-95
2022/04/05 01:51:42;;;;;;;6.40;5.80;;;4.40;97.80;;;;;;5117564;28;20187;-94
2022/04/05 01:54:10;;;;;;;6.20;5.60;;;4.40;97.70;;;;;;5117826;28;20271;-95
2022/04/05 01:56:42;;;;;;;8.75;6.32;;;4.40;97.50;;;;;;5112890;28;20263;-90
2022/04/05 01:59:11;;;;;;;5.80;5.30;;;4.50;97.50;;;;;;5098126;28;20317;-93
2022/04/05 02:01:38;;;;;;;7.15;5.65;;;4.50;97.50;;;;;;5106086;28;20210;-92
2022/04/05 02:04:05;;;;;;;6.95;5.95;;;4.40;97.50;;;;;;5110848;28;20212;-93
2022/04/05 02:06:32;;;;;;;7.25;5.80;;;4.40;97.40;;;;;;5104774;28;20204;-92
2022/04/05 02:09:01;;;;;;;7.07;5.82;;;4.40;97.40;;;;;;5100798;28;20275;-93
2022/04/05 02:11:28;;;;;;;6.45;5.85;;;4.40;97.50;;;;;;5099235;28;20287;-92
2022/04/05 02:13:55;;;;;;;8.65;7.03;;;4.40;97.70;;;;;;5095837;28;20724;-92
2022/04/05 02:16:23;;;;;;;6.22;5.65;;;4.40;97.80;;;;;;5095915;28;20203;-92
2022/04/05 02:18:50;;;;;;;6.70;5.93;;;4.40;97.90;;;;;;5096954;28;20205;-93
2022/04/05 02:21:18;;;;;;;7.85;6.60;;;4.40;98.10;;;;;;5095571;28;20200;-91
2022/04/05 02:24:18;;;;;;;7.05;5.97;;;4.40;98.10;;;;;;5096250;28;20227;-91
2022/04/05 02:26:46;;;;;;;6.90;5.75;;;4.40;98.40;;;;;;5096449;28;20657;-91
2022/04/05 02:29:13;;;;;;;9.98;5.80;;;4.40;98.40;;;;;;5095148;28;20200;-92
2022/04/05 02:31:41;;;;;;;9.70;6.63;;;4.30;98.30;;;;;;5095743;28;20211;-92
2022/04/05 02:34:08;;;;;;;7.93;6.22;;;4.30;98.10;;;;;;5096650;28;20240;-92
2022/04/05 02:36:35;;;;;;;5.63;5.13;;;4.40;98.30;;;;;;5095241;28;20214;-90
2022/04/05 02:39:03;;;;;;;7.60;6.55;;;4.40;98.20;;;;;;5097433;28;20203;-93
2022/04/05 02:41:30;;;;;;;6.95;5.30;;;4.40;98.20;;;;;;5098166;28;20203;-93
2022/04/05 02:43:58;;;;;;;7.22;6.28;;;4.30;98.00;;;;;;5099446;28;20231;-92
2022/04/05 02:46:25;;;;;;;10.07;5.88;;;4.30;98.10;;;;;;5099874;28;20462;-93
2022/04/05 02:48:54;;;;;;;8.50;5.65;;;4.30;98.20;;;;;;5098418;28;20665;-91
2022/04/05 02:51:23;;;;;;;10.07;5.80;;;4.40;98.20;;;;;;5099572;28;20204;-91
2022/04/05 02:53:50;;;;;;;6.30;5.70;;;4.40;98.20;;;;;;5098345;28;20310;-93
2022/04/05 02:56:17;;;;;;;6.38;5.75;;;4.40;98.10;;;;;;5099444;28;20290;-92
2022/04/05 02:58:47;;;;;;;8.00;5.55;;;4.40;98.10;;;;;;5097980;28;20286;-92
2022/04/05 03:01:15;;;;;;;8.82;6.63;;;4.40;98.10;;;;;;5100180;28;20227;-92
2022/04/05 03:03:42;;;;;;;9.27;6.35;;;4.40;98.30;;;;;;5097834;28;20716;-92
2022/04/05 03:06:11;;;;;;;5.93;5.32;;;4.40;98.30;;;;;;5098207;28;20570;-91
2022/04/05 03:08:39;;;;;;;8.15;5.90;;;4.40;98.30;;;;;;5098777;28;20290;-91
2022/04/05 03:11:06;;;;;;;7.10;6.40;;;4.40;98.30;;;;;;5098787;28;20207;-92
2022/04/05 03:13:33;;;;;;;7.13;6.43;;;4.40;98.30;;;;;;5098983;28;20681;-91
2022/04/05 03:16:01;;;;;;;9.10;6.25;;;4.40;98.50;;;;;;5100447;28;20203;-92
2022/04/05 03:18:28;;;;;;;6.35;5.75;;;4.40;98.40;;;;;;5101343;28;20320;-92
2022/04/05 03:20:55;;;;;;;7.25;5.80;;;4.40;98.30;;;;;;5100389;28;20204;-92
2022/04/05 03:23:24;;;;;;;7.20;5.57;;;4.40;98.20;;;;;;5098662;28;20220;-93
2022/04/05 03:25:51;;;;;;;6.53;5.93;;;4.40;98.10;;;;;;5099664;28;20247;-93
2022/04/05 03:31:50;;;;;;;7.20;5.35;;;4.40;98.20;;;;;;4955956;28;20207;-92
2022/04/05 03:34:17;;;;;;;6.22;5.50;;;4.40;98.00;;;;;;5066158;28;20217;-92
2022/04/05 03:36:44;;;;;;;11.95;6.18;;;4.40;98.00;;;;;;5068203;28;20207;-92
2022/04/05 03:41:54;;;;;;;7.15;5.70;;;4.40;97.90;;;;;;5063269;28;20241;-94
2022/04/05 03:44:21;;;;;;;5.85;5.25;;;4.50;97.80;;;;;;5068289;28;20781;-93
2022/04/05 03:46:48;;;;;;;7.85;6.10;;;4.50;97.90;;;;;;5073117;28;20228;-92
2022/04/05 03:49:15;;;;;;;7.00;5.93;;;4.60;97.70;;;;;;5074930;28;20664;-93
2022/04/05 03:51:42;;;;;;;5.70;5.18;;;4.60;97.60;;;;;;5078072;28;20179;-95
2022/04/05 03:54:13;;;;;;;7.63;6.38;;;4.60;97.90;;;;;;5090961;28;20192;-95
2022/04/05 03:59:12;;;;;;;6.03;5.00;;;4.70;97.50;;;;;;5043554;28;20228;-72
2022/04/05 04:01:39;;;;;;;6.63;5.97;;;4.70;97.60;;;;;;5039859;28;20197;-71
2022/04/05 04:04:05;;;;;;;6.00;5.50;;;4.70;97.40;;;;;;5041955;28;20198;-72
2022/04/05 04:06:32;;;;;;;6.25;5.20;;;4.80;97.40;;;;;;5039634;28;20226;-72
2022/04/05 04:08:59;;;;;;;5.90;5.30;;;4.80;97.40;;;;;;5039815;28;20197;-72
2022/04/05 04:11:27;;;;;;;6.30;5.10;;;4.80;97.20;;;;;;5041765;28;20213;-72
2022/04/05 04:13:54;;;;;;;7.78;5.60;;;4.80;97.40;;;;;;5044674;28;20204;-72
2022/04/05 04:16:20;;;;;;;7.47;6.68;;;4.80;97.30;;;;;;5043233;28;20217;-72
2022/04/05 04:18:47;;;;;;;5.97;5.38;;;4.80;97.30;;;;;;5045863;28;20209;-71
2022/04/05 04:21:14;;;;;;;7.43;5.50;;;4.80;97.40;;;;;;5042917;28;20216;-72
2022/04/05 04:23:40;;;;;;;6.55;5.82;;;4.80;97.20;;;;;;5041995;28;20204;-73
2022/04/05 04:26:07;;;;;;;6.90;5.80;;;4.80;97.70;;;;;;5043167;28;20251;-70
2022/04/05 04:28:36;;;;;;;6.65;5.95;;;4.80;98.10;;;;;;5046421;28;20558;-76
2022/04/05 04:31:03;;;;;;;7.18;5.70;;;4.80;98.80;;;;;;5033471;28;20202;-73
2022/04/05 04:33:29;;;;;;;5.88;5.28;;;4.70;99.10;;;;;;5032511;28;20205;-71
2022/04/05 04:35:56;;;;;;;9.45;6.20;;;4.60;99.30;;;;;;5032764;28;20229;-72
2022/04/05 04:38:23;;;;;;;6.80;5.60;;;4.50;99.90;;;;;;5031435;28;20693;-74
2022/04/05 04:40:51;;;;;;;6.90;5.97;;;4.50;99.90;;;;;;5031618;28;20225;-74
2022/04/05 04:43:19;;;;;;;5.95;5.43;;;4.40;99.90;;;;;;5032855;28;20206;-73
2022/04/05 04:45:47;;;;;;;7.72;5.32;;;4.30;99.90;;;;;;5031398;28;20232;-73
2022/04/05 04:48:14;;;;;;;9.20;6.35;;;4.30;99.90;;;;;;5031091;28;20217;-72
2022/04/05 04:50:41;;;;;;;7.18;6.18;;;4.20;99.90;;;;;;5031763;28;20202;-73
2022/04/05 04:53:08;;;;;;;8.00;5.50;;;4.10;99.90;;;;;;5031715;28;20208;-73
2022/04/05 04:55:34;;;;;;;8.68;6.57;;;4.10;99.90;;;;;;5031684;28;20218;-73
2022/04/05 04:58:01;;;;;;;8.27;6.80;;;4.10;99.90;;;;;;5030500;28;20217;-73
2022/04/05 05:00:28;;;;;;;8.30;6.97;;;4.10;99.90;;;;;;5031733;28;20210;-81
2022/04/05 05:02:56;;;;;;;6.20;5.20;;;4.10;99.90;;;;;;5036936;28;20615;-73
2022/04/05 05:05:23;;;;;;;8.27;6.30;;;4.10;99.90;;;;;;5031667;28;20233;-75
2022/04/05 05:07:52;;;;;;;7.82;6.00;;;4.10;99.90;;;;;;5032708;28;20224;-74
2022/04/05 05:10:20;;;;;;;7.50;6.80;;;4.00;99.90;;;;;;5031959;28;20489;-74
2022/04/05 05:12:48;;;;;;;7.88;6.45;;;4.10;99.90;;;;;;5031171;28;20661;-74
2022/04/05 05:15:18;;;;;;;6.72;6.13;;;4.10;99.90;;;;;;5060635;22;20229;-68
2022/04/05 05:17:46;;;;;;;6.32;5.72;;;4.00;99.90;;;;;;5049550;28;20197;-68
2022/04/05 05:20:16;;;;;;;9.43;5.88;;;4.00;99.90;;;;;;5050732;28;20451;-67
2022/04/05 05:22:44;;;;;;;7.15;6.00;;;4.00;99.90;;;;;;5049959;28;20209;-68
2022/04/05 05:25:11;;;;;;;8.48;6.57;;;4.00;99.90;;;;;;5050499;28;20622;-68
2022/04/05 05:27:38;;;;;;;7.25;6.05;;;4.00;99.90;;;;;;5049771;28;20209;-68
2022/04/05 05:30:07;;;;;;;8.98;6.60;;;4.10;99.90;;;;;;5050893;28;20205;-68
2022/04/05 05:32:41;;;;;;;5.80;5.18;;;4.10;99.90;;;;;;5049942;28;20295;-68
2022/04/05 05:35:08;;;;;;;6.57;5.43;;;4.10;99.90;;;;;;5050247;28;20208;-68
2022/04/05 05:37:36;;;;;;;5.97;5.38;;;4.10;99.90;;;;;;5049379;28;20208;-68
2022/04/05 05:40:04;;;;;;;6.18;5.53;;;4.10;99.90;;;;;;5050352;28;20205;-67
2022/04/05 05:42:31;;;;;;;6.75;5.85;;;4.20;99.90;;;;;;5050069;28;20687;-68
2022/04/05 05:44:57;;;;;;;6.40;5.78;;;4.20;99.90;;;;;;5049930;28;20208;-67
2022/04/05 05:47:24;;;;;;;6.90;5.95;;;4.20;99.90;;;;;;5049568;28;20236;-68
2022/04/05 05:49:51;;;;;;;8.10;5.90;;;4.20;99.90;;;;;;5049735;28;20212;-67
2022/04/05 05:52:17;;;;;;;7.10;5.95;;;4.20;99.90;;;;;;5050368;28;20201;-68
2022/04/05 05:54:45;;;;;;;10.13;6.45;;;4.20;99.90;;;;;;5049683;28;20213;-68
2022/04/05 05:57:12;;;;;;;6.47;5.47;;;4.20;99.90;;;;;;5049933;28;20220;-67
2022/04/05 05:59:39;;;;;;;7.70;6.25;;;4.20;99.90;;;;;;5049921;28;20212;-67
2022/04/05 06:02:05;;;;;;;7.80;5.65;;;4.20;99.90;;;;;;5049912;28;20220;-67
2022/04/05 06:04:32;;;;;;;7.97;5.63;;;4.20;99.90;;;;;;5049836;28;20201;-67
2022/04/05 06:06:59;;;;;;;7.00;6.10;;;4.20;99.90;;;;;;5048967;28;20237;-67
2022/04/05 06:09:25;;;;;;;9.85;6.20;;;4.20;99.90;;;;;;5049872;28;20205;-67
2022/04/05 06:11:53;;;;;;;7.90;6.35;;;4.10;99.90;;;;;;5049717;28;20631;-67
2022/04/05 06:14:20;;;;;;;7.47;6.05;;;4.20;99.90;;;;;;5050036;28;20212;-68
2022/04/05 06:16:47;;;;;;;7.22;5.85;;;4.20;99.90;;;;;;5051944;28;20228;-68
2022/04/05 06:19:13;;;;;;;9.50;6.20;;;4.20;99.90;;;;;;5054344;28;20672;-68
2022/04/05 06:21:40;;;;;;;7.88;6.70;;;4.20;99.90;;;;;;5053829;28;20201;-68
2022/04/05 06:24:07;;;;;;;7.35;6.47;;;4.20;99.90;;;;;;5053960;28;20204;-68
2022/04/05 06:26:34;;;;;;;5.78;5.15;;;4.20;99.90;;;;;;5053633;28;20225;-68
2022/04/05 06:29:02;;;;;;;7.35;6.57;;;4.30;99.90;;;;;;5053638;28;20201;-68
2022/04/05 06:31:28;;;;;;;8.98;6.28;;;4.30;99.90;;;;;;5054030;28;20209;-68
2022/04/05 06:33:57;;;;;;;7.70;6.90;;;4.30;99.90;;;;;;5053893;28;20212;-67
2022/04/05 06:36:23;;;;;;;7.50;5.63;;;4.30;99.90;;;;;;5053655;28;20312;-68
2022/04/05 06:38:50;;;;;;;6.90;5.90;;;4.20;99.90;;;;;;5053166;28;20224;-68
2022/04/05 06:41:17;;;;;;;7.47;5.53;;;4.20;99.90;;;;;;5053633;28;20208;-69
2022/04/05 06:43:43;;;;;;;7.30;6.10;;;4.30;99.90;;;;;;5053423;28;20205;-69
2022/04/05 06:46:14;;;;;;;6.00;5.40;;;4.30;99.90;;;;;;5053250;28;20232;-67
2022/04/05 06:48:41;;;;;;;7.00;5.97;;;4.30;99.90;;;;;;5052910;28;20205;-67
2022/04/05 06:51:08;;;;;;;6.07;5.47;;;4.40;99.90;;;;;;5053529;28;20225;-67
2022/04/05 06:53:35;;;;;;;6.85;5.80;;;4.50;99.90;;;;;;5053215;28;20668;-67
2022/04/05 06:56:01;;;;;;;7.20;5.85;;;4.50;99.90;;;;;;5053534;28;20443;-67
2022/04/05 06:58:28;;;;;;;7.32;5.13;;;4.60;99.90;;;;;;5052573;28;20703;-67
2022/04/05 07:00:55;;;;;;;8.05;5.50;;;4.60;99.90;;;;;;5053396;28;20205;-67
2022/04/05 07:03:23;;;;;;;8.65;6.15;;;4.70;99.90;;;;;;5053343;28;20225;-67
2022/04/05 07:05:50;;;;;;;7.05;5.90;;;4.80;99.90;;;;;;5052812;28;20217;-67
2022/04/05 07:08:16;;;;;;;7.85;6.10;;;4.80;99.90;;;;;;5052610;28;20829;-67
2022/04/05 07:10:43;;;;;;;6.95;5.75;;;4.80;99.90;;;;;;5053117;28;20205;-66
2022/04/05 07:13:10;;;;;;;6.68;6.07;;;4.80;99.90;;;;;;5053356;28;20204;-67
2022/04/05 07:15:37;;;;;;;7.15;5.15;;;4.90;99.90;;;;;;5052446;28;20575;-67
2022/04/05 07:18:03;;;;;;;6.72;5.55;;;5.00;99.90;;;;;;5052556;28;20205;-67
2022/04/05 07:20:31;;;;;;;5.75;5.20;;;5.00;99.90;;;;;;5045706;28;20201;-67
2022/04/05 07:22:58;;;;;;;5.63;5.13;;;5.00;99.90;;;;;;5050302;28;20220;-67
2022/04/05 07:25:26;;;;;;;8.15;5.15;;;5.00;99.90;;;;;;5052752;28;20233;-67
2022/04/05 07:27:53;;;;;;;7.30;4.72;;;5.10;99.90;;;;;;5051738;28;20225;-67
2022/04/05 07:30:20;;;;;;;5.65;5.05;;;5.10;99.90;;;;;;5052839;28;20209;-67
2022/04/05 07:32:48;;;;;;;5.53;4.93;;;5.20;99.90;;;;;;5052649;28;20582;-67
2022/04/05 07:35:15;;;;;;;5.78;5.15;;;5.20;99.90;;;;;;5052833;28;20212;-67
2022/04/05 07:37:43;;;;;;;7.72;5.75;;;5.30;99.90;;;;;;5050915;28;20208;-66
2022/04/05 07:40:11;;;;;;;6.78;4.97;;;5.30;99.90;;;;;;5045314;28;20660;-67
2022/04/05 07:42:38;;;;;;;6.15;5.18;;;5.40;99.90;;;;;;5052483;28;20239;-67
2022/04/05 07:45:07;;;;;;;6.53;5.13;;;5.50;99.90;;;;;;5052586;28;20205;-68
2022/04/05 07:47:33;;;;;;;7.68;5.97;;;5.60;99.90;;;;;;5051726;28;20236;-67
2022/04/05 07:50:00;;;;;;;5.95;5.03;;;5.70;99.90;;;;;;5052611;28;20201;-67
2022/04/05 07:52:27;;;;;;;5.65;4.88;;;5.70;99.90;;;;;;5052407;28;20201;-67
2022/04/05 07:54:55;;;;;;;6.20;5.05;;;5.80;99.90;;;;;;5052213;28;20622;-67
2022/04/05 07:57:22;;;;;;;5.95;4.70;;;5.90;99.90;;;;;;5052068;28;20258;-67
2022/04/05 07:59:48;;;;;;;8.05;5.60;;;6.00;99.90;;;;;;5051873;28;20208;-67
2022/04/05 08:02:15;;;;;;;6.65;5.22;;;6.10;99.90;;;;;;5052555;28;20572;-67
2022/04/05 08:04:41;;;;;;;5.80;5.10;;;6.20;99.90;;;;;;5051926;28;20855;-67
2022/04/05 08:07:08;;;;;;;6.10;5.00;;;6.20;99.90;;;;;;5046114;28;20320;-67
2022/04/05 08:09:35;;;;;;;5.80;4.85;;;6.30;99.90;;;;;;5049888;28;20193;-67
2022/04/05 08:12:03;;;;;;;8.25;5.18;;;6.40;99.90;;;;;;5050062;28;20213;-67
2022/04/05 08:14:31;;;;;;;7.43;5.47;;;6.40;99.90;;;;;;5049976;28;20209;-67
2022/04/05 08:16:58;;;;;;;7.45;4.80;;;6.40;99.90;;;;;;5049482;28;20216;-67
2022/04/05 08:19:25;;;;;;;5.15;4.63;;;6.50;99.90;;;;;;5050611;28;20212;-67
2022/04/05 08:21:52;;;;;;;7.15;4.70;;;6.50;99.90;;;;;;5050228;28;20668;-67
2022/04/05 08:24:20;;;;;;;5.70;4.85;;;6.40;99.90;;;;;;5050385;28;20204;-67
2022/04/05 08:26:47;;;;;;;6.10;4.85;;;6.40;99.90;;;;;;5050001;28;20229;-67
2022/04/05 08:29:15;;;;;;;5.40;4.07;;;6.40;99.90;;;;;;5049832;28;20212;-67
2022/04/05 08:31:42;;;;;;;5.70;4.50;;;6.40;99.90;;;;;;5049617;28;20198;-68
2022/04/05 08:34:08;;;;;;;6.20;5.00;;;6.40;99.90;;;;;;5050584;28;20197;-68
2022/04/05 08:36:35;;;;;;;5.00;4.50;;;6.40;99.90;;;;;;5049128;28;20247;-67
2022/04/05 08:39:02;;;;;;;6.35;5.13;;;6.40;99.90;;;;;;5049356;28;20232;-66
2022/04/05 08:41:32;;;;;;;5.32;4.80;;;6.50;99.90;;;;;;5050300;28;20208;-66
2022/04/05 08:44:01;;;;;;;6.22;5.18;;;6.50;99.90;;;;;;5049842;28;20205;-67
2022/04/05 08:46:33;;;;;;;4.55;3.78;;;6.60;99.90;;;;;;5049800;28;20318;-67
2022/04/05 08:49:00;;;;;;;7.10;5.13;;;6.70;99.90;;;;;;5048314;28;20201;-66
2022/04/05 08:51:27;;;;;;;7.50;4.53;;;6.80;99.90;;;;;;5046766;28;20209;-67
2022/04/05 08:53:54;;;;;;;6.82;4.35;;;6.90;99.90;;;;;;5042718;28;20233;-67
2022/04/05 08:56:21;;;;;;;5.40;4.85;;;7.00;99.90;;;;;;5050125;28;20248;-67
2022/04/05 08:58:47;;;;;;;4.90;4.40;;;7.10;99.90;;;;;;5048477;28;20210;-67
2022/04/05 09:01:14;;;;;;;5.63;4.63;;;7.10;99.90;;;;;;5049833;28;20224;-68
2022/04/05 09:03:43;;;;;;;6.53;4.85;;;7.10;99.90;;;;;;5049880;28;20688;-68
2022/04/05 09:06:26;;;;;;;5.30;4.32;;;7.20;99.90;;;;;;5049277;28;20585;-68
2022/04/05 09:09:01;;;;;;;5.03;4.43;;;7.40;99.90;;;;;;5048905;28;20200;-68
2022/04/05 09:11:29;;;;;;;5.80;4.50;;;7.50;99.90;;;;;;5049932;28;20549;-68
2022/04/05 09:14:00;;;;;;;7.93;4.55;;;7.60;99.90;;;;;;5049187;28;20225;-68
2022/04/05 09:16:31;;;;;;;6.38;4.40;;;7.70;99.90;;;;;;5049375;28;20256;-67
2022/04/05 09:19:00;;;;;;;4.93;4.40;;;7.70;99.90;;;;;;5048683;28;20205;-67
2022/04/05 09:21:47;;;;;;;4.93;4.20;;;7.70;99.90;;;;;;5048585;28;20197;-67
2022/04/05 09:24:14;;;;;;;7.35;4.10;;;7.60;99.90;;;;;;5049615;28;20323;-67
2022/04/05 09:26:45;;;;;;;6.32;4.70;;;7.60;99.90;;;;;;5048708;28;20278;-66
2022/04/05 09:29:12;;;;;;;5.18;4.68;;;7.60;99.90;;;;;;5048339;28;20201;-66
2022/04/05 09:31:48;;;;;;;4.20;3.75;;;7.60;99.90;;;;;;5048803;28;20309;-66
2022/04/05 09:34:19;;;;;;;5.53;4.30;;;7.50;99.90;;;;;;5049261;28;20235;-69
2022/04/05 09:36:48;;;;;;;6.85;4.25;;;7.50;99.90;;;;;;5047555;28;20221;-69
2022/04/05 09:39:20;;;;;;;5.13;3.60;;;7.50;99.90;;;;;;5047923;28;20205;-66
2022/04/05 09:41:48;;;;;;;5.57;4.20;;;7.50;99.90;;;;;;5048030;28;20205;-67
2022/04/05 09:44:26;;;;;;;4.07;3.70;;;7.50;99.90;;;;;;5047648;28;20212;-67
2022/04/05 09:47:03;;;;;;;4.95;4.00;;;7.60;99.90;;;;;;5047607;28;20299;-67
2022/04/05 09:49:37;;;;;;;7.18;3.83;;;7.60;99.90;;;;;;5047567;28;20215;-67
2022/04/05 09:52:21;;;;;;;4.78;3.85;;;7.60;99.90;;;;;;5049006;28;20201;-67
2022/04/05 09:54:48;;;;;;;5.05;4.40;;;7.60;99.90;;;;;;5048195;28;20215;-67
2022/04/05 09:57:15;;;;;;;7.30;4.55;;;7.60;99.90;;;;;;5047543;28;20287;-68
2022/04/05 09:59:47;;;;;;;4.38;3.97;;;7.70;99.90;;;;;;5050226;28;20205;-67
2022/04/05 10:02:16;;;;;;;4.55;3.97;;;7.90;99.90;;;;;;5049953;28;20208;-68
2022/04/05 10:05:05;;;;;;;4.10;3.70;;;7.90;99.90;;;;;;5047871;28;20951;-68
2022/04/05 10:07:33;;;;;;;4.25;3.83;;;7.90;99.90;;;;;;5047037;28;20228;-68
2022/04/05 10:10:01;;;;;;;5.03;4.00;;;8.00;99.90;;;;;;5048412;28;20212;-69
2022/04/05 10:12:28;;;;;;;4.45;4.05;;;8.10;99.90;;;;;;5047526;28;20255;-68
2022/04/05 10:14:56;;;;;;;4.45;3.92;;;8.30;99.90;;;;;;5038668;28;20220;-68
2022/04/05 10:17:26;;;;;;;4.63;4.00;;;8.50;99.90;;;;;;5035905;28;20227;-68
2022/04/05 10:19:56;;;;;;;4.82;4.03;;;8.70;99.90;;;;;;5029716;28;20260;-68
2022/04/05 10:22:25;;;;;;;4.65;4.25;;;9.00;99.90;;;;;;5028382;28;20288;-68
2022/04/05 10:24:54;;;;;;;4.80;4.20;;;9.20;99.90;;;;;;5027934;28;20211;-68
2022/04/05 10:27:22;;;;;;;4.90;3.88;;;9.30;99.90;;;;;;5026853;28;20620;-67
2022/04/05 10:29:56;;;;;;;4.13;3.42;;;9.30;99.90;;;;;;5031899;28;20201;-67
2022/04/05 10:32:33;;;;;;;3.85;3.45;;;9.40;99.90;;;;;;5048938;28;20206;-68
2022/04/05 10:35:04;;;;;;;7.18;4.10;;;9.40;99.90;;;;;;5048656;28;20201;-67
2022/04/05 10:37:35;;;;;;;5.07;4.05;;;9.50;99.90;;;;;;5047530;28;20197;-67
2022/04/05 10:40:14;;;;;;;4.45;4.05;;;9.40;99.90;;;;;;5047979;28;20208;-68
2022/04/05 10:42:43;;;;;;;4.03;3.63;;;9.20;99.90;;;;;;5048408;28;20232;-68
2022/04/05 10:45:13;;;;;;;5.78;4.43;;;9.20;99.90;;;;;;5048299;28;20211;-68
2022/04/05 10:48:09;;;;;;;5.25;3.58;;;9.30;99.90;;;;;;5047440;28;20337;-68
2022/04/05 10:50:36;;;;;;;3.80;3.40;;;9.40;99.90;;;;;;5047841;28;20201;-69
2022/04/05 10:53:32;;;;;;;4.22;3.78;;;9.70;99.90;;;;;;5047858;28;20205;-69
2022/04/05 10:56:15;;;;;;;5.00;3.53;;;9.90;99.90;;;;;;5035188;28;20229;-68
2022/04/05 10:59:02;;;;;;;5.40;3.25;;;9.90;99.90;;;;;;5047248;28;20208;-68
2022/04/05 11:01:42;;;;;;;4.55;3.60;;;9.70;99.90;;;;;;5048960;28;20205;-68
2022/04/05 11:04:35;;;;;;;3.22;2.92;;;9.60;99.90;;;;;;5051756;28;20299;-68
2022/04/05 11:07:10;;;;;;;5.00;3.92;;;9.50;99.90;;;;;;5050977;28;20233;-68
2022/04/05 11:09:54;;;;;;;4.07;3.67;;;9.70;99.90;;;;;;5051756;28;20579;-68
2022/04/05 11:12:23;;;;;;;4.10;3.70;;;9.70;99.90;;;;;;5052467;28;20295;-68
2022/04/05 11:14:55;;;;;;;5.45;3.92;;;9.70;99.90;;;;;;5051147;28;20227;-68
2022/04/05 11:17:25;;;;;;;4.95;3.58;;;9.80;99.90;;;;;;5051203;28;20224;-68
2022/04/05 11:19:55;;;;;;;5.65;3.75;;;9.90;99.90;;;;;;5051883;28;20197;-68
2022/04/05 11:22:33;;;;;;;4.28;3.45;;;10.10;99.90;;;;;;5051749;28;20207;-69
2022/04/05 11:25:04;;;;;;;3.97;3.13;;;10.10;99.90;;;;;;5051861;28;20271;-69
2022/04/05 11:27:34;;;;;;;4.32;3.60;;;10.20;99.90;;;;;;5050697;28;20217;-69
2022/04/05 11:30:39;;;;;;;5.57;3.80;;;10.20;99.90;;;;;;5051241;28;20292;-69
2022/04/05 11:33:22;;;;;;;4.35;3.47;;;10.30;99.90;;;;;;5051850;28;20262;-68
2022/04/05 11:35:50;;;;;;;4.00;3.25;;;10.30;99.90;;;;;;5051523;28;20247;-68
2022/04/05 11:38:28;;;;;;;5.57;3.70;;;10.40;99.90;;;;;;5051583;28;20205;-67
2022/04/05 11:41:00;;;;;;;4.05;3.28;;;10.40;99.90;;;;;;5051436;28;20205;-68
2022/04/05 11:43:29;;;;;;;4.13;3.60;;;10.30;99.90;;;;;;5052008;28;20236;-68
2022/04/05 11:45:57;;;;;;;5.40;3.00;;;10.30;99.90;;;;;;5052111;28;20221;-68
2022/04/05 11:48:27;;;;;;;4.97;3.00;;;10.50;99.90;;;;;;5051384;28;20232;-68
2022/04/05 11:50:55;;;;;;;4.35;3.33;;;10.70;99.90;;;;;;5051907;28;20248;-68
2022/04/05 11:53:23;;;;;;;4.20;3.22;;;10.70;99.90;;;;;;5051482;28;20201;-73
2022/04/05 11:56:06;;;;;;;3.65;3.00;;;10.70;99.90;;;;;;5052095;28;20228;-68
2022/04/05 11:58:34;;;;;;;3.58;2.97;;;11.00;99.90;;;;;;5050512;28;20668;-68
2022/04/05 12:01:03;;;;;;;3.35;3.05;;;11.60;99.90;;;;;;5052186;28;20232;-68
2022/04/05 12:03:30;;;;;;;4.72;3.30;;;11.80;99.90;;;;;;5051503;28;20236;-68
2022/04/05 12:05:56;;;;;;;4.55;3.05;;;11.80;99.90;;;;;;5051057;28;20221;-68
2022/04/05 12:08:23;;;;;;;4.07;2.70;;;12.10;99.90;;;;;;5051227;28;20248;-69
2022/04/05 12:10:50;;;;;;;5.97;3.88;;;12.30;99.80;;;;;;5051468;28;20287;-68
2022/04/05 12:13:27;;;;;;;4.28;3.22;;;12.70;99.90;;;;;;5051166;28;20205;-68
2022/04/05 12:15:58;;;;;;;4.15;3.40;;;13.00;99.10;;;;;;5049323;28;20303;-68
2022/04/05 12:18:26;;;;;;;5.45;4.28;;;12.70;98.40;;;;;;5050970;28;20201;-68
2022/04/05 12:20:58;;;;;;;3.58;3.28;;;12.20;98.90;;;;;;5051300;28;20554;-68
2022/04/05 12:23:29;;;;;;;4.60;3.30;;;11.70;99.70;;;;;;5051635;28;20209;-68
2022/04/05 12:26:11;;;;;;;6.13;4.10;;;11.40;99.30;;;;;;5121585;22;20239;-74
2022/04/05 12:28:41;;;;;;;5.25;3.60;;;10.80;99.90;;;;;;5069674;28;20216;-74
2022/04/05 12:31:15;;;;;;;3.85;3.55;;;10.60;99.90;;;;;;5072022;28;20219;-74
2022/04/05 12:33:52;;;;;;;4.53;4.07;;;10.40;99.90;;;;;;5071116;28;20203;-74
2022/04/05 12:36:19;;;;;;;5.10;4.03;;;10.50;99.90;;;;;;5071506;28;20224;-74
2022/04/05 12:38:46;;;;;;;5.63;3.75;;;10.60;99.90;;;;;;5070770;28;20206;-73
2022/04/05 12:41:14;;;;;;;3.92;3.63;;;10.60;99.90;;;;;;5069199;28;20200;-74
2022/04/05 12:43:43;;;;;;;4.75;3.40;;;10.50;99.90;;;;;;5070999;28;20232;-74
2022/04/05 12:46:11;;;;;;;4.32;3.63;;;10.40;99.90;;;;;;5071340;28;20369;-74
2022/04/05 12:48:40;;;;;;;6.80;4.40;;;10.40;99.90;;;;;;5070680;28;20220;-73
2022/04/05 12:51:06;;;;;;;5.60;4.40;;;10.50;99.90;;;;;;5070933;28;20242;-74
2022/04/05 12:53:37;;;;;;;7.28;4.40;;;10.70;99.90;;;;;;5070811;28;20580;-73
2022/04/05 12:56:09;;;;;;;5.47;3.58;;;10.70;99.90;;;;;;5071067;28;20224;-73
2022/04/05 12:58:42;;;;;;;4.18;3.80;;;10.90;99.90;;;;;;5070090;28;20596;-73
2022/04/05 13:01:17;;;;;;;5.18;4.70;;;11.50;99.90;;;;;;5071418;28;20672;-74
2022/04/05 13:03:43;;;;;;;3.92;3.40;;;11.40;99.20;;;;;;5070367;28;20203;-73
2022/04/05 13:06:20;;;;;;;5.40;4.20;;;11.00;99.60;;;;;;5070278;28;20227;-74
2022/04/05 13:08:48;;;;;;;3.92;3.50;;;10.80;99.70;;;;;;5069769;28;20224;-73
2022/04/05 13:11:25;;;;;;;5.05;4.13;;;10.50;99.90;;;;;;5070948;28;20698;-73
2022/04/05 13:14:14;;;;;;;4.25;3.70;;;10.50;99.90;;;;;;5070729;28;20201;-73
2022/04/05 13:16:43;;;;;;;4.40;3.42;;;10.50;99.90;;;;;;5067218;28;20255;-71